TAF Text Data
IDs:
Format:
Raw Decoded Include METAR

Data at: 0759 UTC 07 Dec 2022

KPWM 070534Z 0706/0806 12009KT 6SM -RA BKN015 OVC070
  TEMPO 0706/0709 SCT015
  FM071000 12008KT 2SM RA BKN003 OVC010
  FM071800 16007KT 3SM SHRA BR OVC003
  FM080100 20004KT 1SM -RA BR OVC003
  FM080300 31003KT 2SM -DZ BR BKN003